Time;durP1;ratioP1;P1;durP2;ratioP2;P2;SDS_P1;SDS_P2;PMS_P1;PMS_P2;Temp;Humidity;BMP_temperature;BMP_pressure;BME280_temperature;BME280_humidity;BME280_pressure;Samples;Min_cycle;Max_cycle;Signal;HPM_P1;HPM_P2
2022/01/08 00:00:27;;;;;;;3.38;2.28;;;6.60;75.00;;;;;;5020860;28;20073;-76
2022/01/08 00:02:54;;;;;;;2.67;2.25;;;6.60;74.80;;;;;;5017606;28;20132;-76
2022/01/08 00:05:21;;;;;;;3.53;2.80;;;6.50;74.70;;;;;;4996268;28;20053;-77
2022/01/08 00:07:48;;;;;;;3.58;2.80;;;6.50;74.60;;;;;;4996400;28;20064;-77
2022/01/08 00:10:15;;;;;;;2.70;2.47;;;6.50;74.60;;;;;;5030204;28;20045;-77
2022/01/08 00:12:42;;;;;;;3.92;2.45;;;6.40;74.60;;;;;;5014049;28;20061;-76
2022/01/08 00:15:10;;;;;;;3.05;2.75;;;6.40;74.40;;;;;;5002084;28;20048;-77
2022/01/08 00:17:37;;;;;;;6.20;2.67;;;6.30;75.00;;;;;;4998200;28;20452;-77
2022/01/08 00:20:05;;;;;;;4.78;3.08;;;6.40;74.40;;;;;;5023781;28;20579;-78
2022/01/08 00:22:32;;;;;;;5.97;3.13;;;6.30;74.30;;;;;;5033121;28;20040;-76
2022/01/08 00:24:59;;;;;;;4.15;3.22;;;6.20;74.30;;;;;;5010884;28;20061;-75
2022/01/08 00:27:25;;;;;;;4.90;3.30;;;6.20;74.60;;;;;;4998277;28;20136;-76
2022/01/08 00:29:52;;;;;;;3.70;2.75;;;6.10;74.70;;;;;;5001323;28;20053;-77
2022/01/08 00:32:19;;;;;;;4.93;2.78;;;6.10;74.60;;;;;;4999010;28;20045;-77
2022/01/08 00:34:46;;;;;;;3.13;2.75;;;6.00;74.40;;;;;;5020371;28;20042;-77
2022/01/08 00:37:13;;;;;;;4.40;2.83;;;6.00;74.40;;;;;;5010328;28;20412;-76
2022/01/08 00:39:40;;;;;;;3.97;2.95;;;5.90;74.20;;;;;;5009859;28;20519;-77
2022/01/08 00:42:07;;;;;;;3.95;2.67;;;5.90;74.10;;;;;;5007033;28;20726;-76
2022/01/08 00:44:34;;;;;;;4.43;3.00;;;5.80;73.90;;;;;;5011191;28;20136;-76
2022/01/08 00:47:01;;;;;;;4.43;2.88;;;6.00;73.90;;;;;;4993169;28;20058;-76
2022/01/08 00:49:28;;;;;;;3.90;2.88;;;5.70;73.60;;;;;;4995193;28;20051;-76
2022/01/08 00:51:55;;;;;;;5.72;3.25;;;5.70;73.60;;;;;;5008636;28;20033;-75
2022/01/08 00:54:22;;;;;;;4.75;3.70;;;5.70;73.60;;;;;;4995515;28;20136;-77
2022/01/08 00:56:50;;;;;;;6.80;4.18;;;5.50;73.60;;;;;;5013797;28;20037;-77
2022/01/08 00:59:17;;;;;;;6.35;4.85;;;5.50;73.80;;;;;;4995001;28;20046;-77
2022/01/08 01:01:44;;;;;;;9.77;5.22;;;5.40;73.80;;;;;;5018464;28;20033;-76
2022/01/08 01:04:11;;;;;;;8.73;4.85;;;5.30;74.00;;;;;;5013441;28;20493;-76
2022/01/08 01:06:38;;;;;;;7.97;5.00;;;5.30;74.10;;;;;;5002993;28;20056;-77
2022/01/08 01:09:05;;;;;;;6.32;4.65;;;5.20;74.10;;;;;;5013738;28;20406;-76
2022/01/08 01:11:32;;;;;;;9.10;4.60;;;5.10;74.10;;;;;;5030120;28;20052;-75
2022/01/08 01:13:59;;;;;;;7.47;4.53;;;5.20;74.10;;;;;;5001374;28;20734;-77
2022/01/08 01:16:26;;;;;;;9.75;5.22;;;5.10;74.10;;;;;;5029015;28;20041;-77
2022/01/08 01:18:53;;;;;;;6.28;4.85;;;5.10;74.50;;;;;;5031265;28;20029;-76
2022/01/08 01:21:20;;;;;;;7.55;4.60;;;5.00;74.70;;;;;;4991964;28;20041;-77
2022/01/08 01:23:48;;;;;;;7.95;4.65;;;5.00;74.80;;;;;;5011588;28;20049;-77
2022/01/08 01:26:20;;;;;;;6.35;4.95;;;5.00;74.80;;;;;;5020070;28;20049;-76
2022/01/08 01:28:54;;;;;;;5.57;3.83;;;5.00;74.90;;;;;;5013916;28;20061;-77
2022/01/08 01:42:25;;;;;;;9.93;5.28;;;4.90;75.70;;;;;;5012063;28;20434;-77
2022/01/08 01:47:57;;;;;;;8.05;5.55;;;4.90;76.10;;;;;;4971904;28;20565;-75
2022/01/08 01:50:24;;;;;;;8.68;5.13;;;4.90;76.10;;;;;;4974121;28;20058;-77
2022/01/08 01:52:51;;;;;;;10.05;5.75;;;4.90;76.10;;;;;;4986092;28;20045;-77
2022/01/08 01:55:18;;;;;;;8.98;5.85;;;4.90;76.20;;;;;;4994035;28;20064;-77
2022/01/08 01:57:47;;;;;;;10.73;5.72;;;5.00;76.30;;;;;;5011930;28;20049;-75
2022/01/08 02:00:14;;;;;;;7.07;5.85;;;5.10;76.40;;;;;;4991798;28;20053;-77
2022/01/08 02:02:41;;;;;;;8.63;6.32;;;5.00;76.30;;;;;;5009430;28;20040;-77
2022/01/08 02:05:09;;;;;;;10.30;6.78;;;5.00;76.40;;;;;;4998350;28;20050;-77
2022/01/08 02:07:35;;;;;;;10.52;6.70;;;5.00;76.50;;;;;;4993208;28;20063;-75
2022/01/08 02:10:03;;;;;;;9.57;6.60;;;5.00;76.40;;;;;;5014099;28;20052;-77
2022/01/08 02:12:34;;;;;;;13.65;7.32;;;5.00;76.50;;;;;;5029556;28;20112;-75
2022/01/08 02:15:02;;;;;;;8.82;6.80;;;5.00;76.50;;;;;;5016981;28;20055;-76
2022/01/08 02:17:28;;;;;;;13.20;7.53;;;5.00;76.50;;;;;;5016033;28;20038;-75
2022/01/08 02:19:56;;;;;;;8.27;6.65;;;5.00;76.50;;;;;;5033083;28;20033;-76
2022/01/08 02:22:23;;;;;;;11.15;6.32;;;5.00;76.50;;;;;;5015406;28;20037;-77
2022/01/08 02:24:50;;;;;;;9.93;6.97;;;5.00;76.60;;;;;;5027579;28;20049;-77
2022/01/08 02:27:17;;;;;;;12.43;6.97;;;5.00;76.50;;;;;;5013776;28;20691;-77
2022/01/08 02:29:45;;;;;;;10.93;7.28;;;5.00;76.50;;;;;;4995142;28;20433;-77
2022/01/08 02:32:15;;;;;;;9.70;6.45;;;5.00;76.60;;;;;;4997003;28;20038;-75
2022/01/08 02:34:44;;;;;;;10.20;6.97;;;5.00;77.20;;;;;;5008079;28;20131;-76
2022/01/08 02:37:14;;;;;;;9.95;7.07;;;5.00;76.60;;;;;;5011901;28;20037;-76
2022/01/08 02:39:43;;;;;;;12.38;7.75;;;5.00;76.60;;;;;;5001104;28;20037;-77
2022/01/08 02:42:13;;;;;;;11.43;7.72;;;4.90;76.50;;;;;;5029988;28;20038;-76
2022/01/08 02:44:41;;;;;;;12.60;8.05;;;4.90;76.40;;;;;;5007241;28;20032;-77
2022/01/08 02:47:10;;;;;;;14.90;8.57;;;4.90;76.40;;;;;;5004485;28;20465;-76
2022/01/08 02:49:37;;;;;;;14.18;8.90;;;4.90;76.40;;;;;;5023314;28;20049;-77
2022/01/08 02:52:04;;;;;;;17.70;9.70;;;4.90;76.40;;;;;;5012876;28;20049;-76
2022/01/08 02:54:31;;;;;;;15.57;10.10;;;4.90;76.40;;;;;;5030889;23;20042;-55
2022/01/08 02:56:58;;;;;;;14.40;8.55;;;4.90;76.50;;;;;;5012276;28;20042;-55
2022/01/08 02:59:25;;;;;;;14.45;8.32;;;4.90;76.50;;;;;;5021047;28;20095;-54
2022/01/08 03:01:53;;;;;;;15.98;7.88;;;4.90;76.50;;;;;;5029082;28;20050;-53
2022/01/08 03:04:20;;;;;;;18.05;8.43;;;4.80;76.40;;;;;;5025971;28;20041;-52
2022/01/08 03:06:50;;;;;;;11.68;6.82;;;4.90;76.50;;;;;;5007616;28;20038;-56
2022/01/08 03:09:18;;;;;;;12.13;7.32;;;4.90;76.60;;;;;;5027768;28;20080;-56
2022/01/08 03:11:45;;;;;;;12.15;7.32;;;4.80;76.50;;;;;;5029424;28;20045;-51
2022/01/08 03:14:12;;;;;;;10.80;7.03;;;4.80;76.50;;;;;;5012546;28;20509;-52
2022/01/08 03:16:39;;;;;;;9.50;6.75;;;4.80;76.60;;;;;;5022667;28;20038;-55
2022/01/08 03:19:12;;;;;;;10.45;7.13;;;4.80;76.60;;;;;;5024187;28;20067;-56
2022/01/08 03:21:42;;;;;;;8.52;6.40;;;4.80;76.60;;;;;;5034214;28;20087;-52
2022/01/08 03:24:13;;;;;;;7.85;6.07;;;4.80;76.70;;;;;;5020755;28;20066;-54
2022/01/08 03:26:40;;;;;;;10.73;7.55;;;4.80;76.70;;;;;;5017804;28;20493;-54
2022/01/08 03:29:08;;;;;;;12.40;7.30;;;4.80;76.60;;;;;;5020506;28;20108;-55
2022/01/08 03:31:34;;;;;;;11.35;7.63;;;4.80;76.70;;;;;;5013266;28;20046;-51
2022/01/08 03:34:02;;;;;;;9.55;6.70;;;4.80;76.60;;;;;;5008059;28;20096;-55
2022/01/08 03:36:29;;;;;;;11.05;7.78;;;4.70;76.60;;;;;;5021805;28;20097;-52
2022/01/08 03:38:56;;;;;;;10.50;7.32;;;4.70;76.60;;;;;;5029499;28;20555;-56
2022/01/08 03:41:24;;;;;;;9.23;6.75;;;4.70;76.60;;;;;;5018863;28;20034;-55
2022/01/08 03:43:51;;;;;;;12.77;7.43;;;4.70;76.70;;;;;;5020754;28;20107;-54
2022/01/08 03:46:22;;;;;;;12.95;7.55;;;4.70;76.70;;;;;;5024427;28;20111;-55
2022/01/08 03:49:13;;;;;;;13.82;7.38;;;4.70;76.80;;;;;;5020288;28;20034;-56
2022/01/08 03:51:40;;;;;;;12.25;7.80;;;4.70;76.80;;;;;;5008078;28;20073;-56
2022/01/08 03:54:07;;;;;;;13.55;8.35;;;4.70;76.90;;;;;;5026835;28;20069;-53
2022/01/08 03:56:34;;;;;;;18.02;8.18;;;4.70;77.00;;;;;;5026775;28;20045;-53
2022/01/08 03:59:01;;;;;;;16.77;8.70;;;4.70;76.90;;;;;;5032657;28;20663;-52
2022/01/08 04:01:27;;;;;;;11.27;7.55;;;4.70;76.90;;;;;;5024387;28;20041;-56
2022/01/08 04:03:54;;;;;;;13.52;8.30;;;4.70;76.90;;;;;;5024360;28;20029;-54
2022/01/08 04:06:21;;;;;;;12.00;7.88;;;4.70;76.90;;;;;;5009458;28;20121;-55
2022/01/08 04:08:48;;;;;;;10.50;7.70;;;4.60;76.90;;;;;;5010064;28;20057;-54
2022/01/08 04:11:15;;;;;;;11.50;8.27;;;4.60;77.00;;;;;;5010631;28;20096;-54
2022/01/08 04:13:42;;;;;;;11.63;7.40;;;4.60;77.70;;;;;;5020258;28;20453;-52
2022/01/08 04:16:13;;;;;;;11.18;7.15;;;4.60;77.10;;;;;;5030542;28;20041;-54
2022/01/08 04:18:40;;;;;;;13.73;8.50;;;4.60;77.10;;;;;;5031063;28;20049;-53
2022/01/08 04:23:45;;;;;;;12.50;7.75;;;4.60;77.00;;;;;;5021699;28;20030;-53
2022/01/08 04:26:12;;;;;;;11.13;7.22;;;4.60;77.10;;;;;;5013278;28;20575;-55
2022/01/08 04:28:40;;;;;;;14.02;7.72;;;4.60;77.00;;;;;;5008429;28;20050;-52
2022/01/08 04:31:07;;;;;;;13.10;7.95;;;4.60;77.10;;;;;;5006368;28;20077;-53
2022/01/08 04:33:36;;;;;;;15.80;9.02;;;4.60;77.10;;;;;;5011028;28;20500;-56
2022/01/08 04:36:03;;;;;;;13.48;7.88;;;4.60;77.00;;;;;;5012200;28;20050;-51
2022/01/08 04:38:32;;;;;;;12.23;7.55;;;4.60;77.00;;;;;;5042977;23;20560;-47
2022/01/08 04:40:59;;;;;;;12.98;8.35;;;4.60;77.50;;;;;;5032242;28;20447;-50
2022/01/08 04:43:28;;;;;;;13.98;8.05;;;4.60;76.80;;;;;;5030567;28;20079;-51
2022/01/08 04:45:56;;;;;;;10.38;7.15;;;4.60;76.70;;;;;;5030998;28;20124;-51
2022/01/08 04:48:23;;;;;;;13.38;7.78;;;4.60;76.70;;;;;;5019343;28;20127;-48
2022/01/08 04:50:50;;;;;;;12.50;7.47;;;4.60;76.70;;;;;;5040758;28;20079;-51
2022/01/08 04:53:17;;;;;;;12.82;7.88;;;4.50;76.60;;;;;;5042316;28;20048;-49
2022/01/08 04:55:43;;;;;;;12.93;7.32;;;4.50;76.60;;;;;;5051415;28;20045;-48
2022/01/08 04:58:10;;;;;;;13.32;7.45;;;4.50;76.50;;;;;;5035502;28;20045;-50
2022/01/08 05:00:38;;;;;;;11.30;7.57;;;4.50;76.60;;;;;;5043903;28;20046;-49
2022/01/08 05:03:05;;;;;;;11.50;8.35;;;4.50;76.60;;;;;;5049070;28;20075;-48
2022/01/08 05:05:32;;;;;;;16.17;7.45;;;4.50;76.60;;;;;;5040289;28;20037;-52
2022/01/08 05:08:00;;;;;;;12.90;7.25;;;4.40;76.60;;;;;;5031518;28;20045;-51
2022/01/08 05:10:33;;;;;;;10.88;7.20;;;4.50;76.80;;;;;;5047213;28;20034;-50
2022/01/08 05:13:04;;;;;;;12.40;7.57;;;4.40;76.90;;;;;;5031156;28;20150;-50
2022/01/08 05:15:31;;;;;;;10.98;7.70;;;4.40;76.90;;;;;;5030242;28;20041;-47
2022/01/08 05:17:58;;;;;;;11.05;7.47;;;4.40;77.00;;;;;;5033499;28;20041;-51
2022/01/08 05:20:30;;;;;;;12.48;6.60;;;4.40;77.10;;;;;;5042596;28;20036;-49
2022/01/08 05:23:00;;;;;;;14.57;7.50;;;4.40;77.10;;;;;;5050728;28;20045;-52
2022/01/08 05:25:29;;;;;;;10.38;6.88;;;4.40;77.10;;;;;;5028770;28;20044;-52
2022/01/08 05:27:57;;;;;;;11.90;6.50;;;4.40;77.10;;;;;;5036775;28;20048;-48
2022/01/08 05:30:25;;;;;;;13.07;7.47;;;4.30;77.10;;;;;;5034441;28;20044;-47
2022/01/08 05:32:53;;;;;;;9.90;6.43;;;4.30;77.10;;;;;;5046862;28;20041;-49
2022/01/08 05:35:21;;;;;;;11.40;7.03;;;4.30;77.20;;;;;;5038841;28;20041;-49
2022/01/08 05:37:48;;;;;;;11.13;6.50;;;4.30;77.20;;;;;;5040925;28;20037;-48
2022/01/08 05:40:18;;;;;;;11.85;6.57;;;4.30;77.30;;;;;;5049561;28;20059;-51
2022/01/08 05:42:46;;;;;;;12.00;6.82;;;4.30;77.40;;;;;;5042672;28;20041;-50
2022/01/08 05:45:12;;;;;;;12.57;6.95;;;4.30;77.40;;;;;;5030924;28;20041;-51
2022/01/08 05:47:40;;;;;;;13.55;7.28;;;4.30;77.40;;;;;;5039797;28;20041;-48
2022/01/08 05:50:08;;;;;;;13.50;7.38;;;4.30;77.50;;;;;;5047861;28;20484;-49
2022/01/08 05:52:34;;;;;;;15.40;7.90;;;4.30;78.10;;;;;;5048537;28;20045;-52
2022/01/08 05:55:02;;;;;;;15.30;7.75;;;4.30;77.80;;;;;;5029592;28;20068;-50
2022/01/08 05:57:28;;;;;;;15.13;8.18;;;4.30;77.60;;;;;;5033350;28;20050;-47
2022/01/08 05:59:58;;;;;;;13.93;7.90;;;4.30;77.60;;;;;;5029097;28;20401;-50
2022/01/08 06:02:31;;;;;;;13.32;7.35;;;4.30;77.60;;;;;;5064934;28;20812;-51
2022/01/08 06:04:58;;;;;;;12.27;6.18;;;4.30;77.70;;;;;;5048805;28;20040;-49
2022/01/08 06:07:24;;;;;;;12.05;7.00;;;4.30;77.70;;;;;;5045349;28;20106;-50
2022/01/08 06:09:51;;;;;;;12.48;7.25;;;4.30;77.70;;;;;;5022474;28;20043;-47
2022/01/08 06:12:18;;;;;;;13.57;7.90;;;4.30;77.70;;;;;;5022638;28;20050;-50
2022/01/08 06:14:45;;;;;;;13.82;7.43;;;4.30;77.80;;;;;;5033030;28;20045;-49
2022/01/08 06:17:11;;;;;;;12.50;7.97;;;4.30;77.80;;;;;;5034066;28;20053;-50
2022/01/08 06:19:38;;;;;;;12.77;8.45;;;4.30;77.90;;;;;;5025222;28;20037;-48
2022/01/08 06:22:05;;;;;;;14.55;8.70;;;4.30;77.80;;;;;;5026651;28;20504;-50
2022/01/08 06:24:32;;;;;;;15.77;8.38;;;4.30;77.80;;;;;;5039741;28;20037;-48
2022/01/08 06:27:00;;;;;;;14.35;9.02;;;4.30;77.80;;;;;;5043638;28;20045;-51
2022/01/08 06:29:27;;;;;;;11.00;7.57;;;4.30;77.70;;;;;;5045105;28;20462;-48
2022/01/08 06:31:54;;;;;;;14.35;8.35;;;4.30;77.70;;;;;;5033472;28;20415;-52
2022/01/08 06:34:21;;;;;;;14.05;8.40;;;4.30;77.70;;;;;;5036037;28;20064;-47
2022/01/08 06:36:48;;;;;;;12.73;8.20;;;4.30;77.80;;;;;;5040460;28;20076;-51
2022/01/08 06:39:16;;;;;;;15.05;8.25;;;4.30;77.80;;;;;;5020967;28;20045;-48
2022/01/08 06:41:43;;;;;;;14.30;8.25;;;4.30;77.90;;;;;;5024001;28;20042;-49
2022/01/08 06:44:11;;;;;;;13.35;8.65;;;4.40;78.10;;;;;;5022923;28;20033;-48
2022/01/08 06:46:37;;;;;;;14.27;8.55;;;4.30;78.20;;;;;;5026382;28;20033;-48
2022/01/08 06:49:04;;;;;;;14.25;8.60;;;4.30;78.30;;;;;;5019997;28;20081;-51
2022/01/08 06:51:31;;;;;;;15.55;8.52;;;4.30;78.30;;;;;;5034962;28;20123;-47
2022/01/08 06:53:58;;;;;;;16.90;8.60;;;4.40;78.20;;;;;;5029222;28;20509;-51
2022/01/08 06:56:27;;;;;;;12.98;7.63;;;4.40;78.20;;;;;;5041359;28;20098;-49
2022/01/08 06:58:55;;;;;;;11.70;7.68;;;4.40;78.10;;;;;;5028290;28;20042;-49
2022/01/08 07:01:22;;;;;;;13.00;7.90;;;4.40;78.10;;;;;;5033823;28;20053;-51
2022/01/08 07:03:48;;;;;;;14.13;8.65;;;4.40;78.10;;;;;;5037318;28;20037;-46
2022/01/08 07:06:16;;;;;;;14.38;8.35;;;4.40;78.20;;;;;;5029559;28;20096;-48
2022/01/08 07:08:42;;;;;;;12.88;8.35;;;4.40;78.30;;;;;;5021257;28;20104;-49
2022/01/08 07:11:10;;;;;;;13.88;8.63;;;4.40;78.30;;;;;;5027600;28;20038;-48
2022/01/08 07:13:36;;;;;;;18.88;9.75;;;4.50;78.40;;;;;;5021092;28;20057;-52
2022/01/08 07:16:03;;;;;;;19.48;10.38;;;4.50;78.40;;;;;;5012812;28;20046;-48
2022/01/08 07:18:30;;;;;;;18.33;11.32;;;4.50;78.60;;;;;;5003591;28;20045;-50
2022/01/08 07:20:57;;;;;;;20.65;11.50;;;4.50;78.70;;;;;;5021712;28;20393;-51
2022/01/08 07:23:24;;;;;;;21.33;12.50;;;4.60;78.90;;;;;;5019311;28;20445;-48
2022/01/08 07:25:53;;;;;;;16.55;10.95;;;4.60;79.00;;;;;;5000866;28;20046;-48
2022/01/08 07:28:20;;;;;;;17.92;10.90;;;4.60;78.90;;;;;;5010534;28;20052;-50
2022/01/08 07:30:46;;;;;;;16.63;10.48;;;4.70;78.80;;;;;;5014298;28;20456;-50
2022/01/08 07:33:13;;;;;;;16.85;10.05;;;4.70;78.70;;;;;;5017851;28;20053;-52
2022/01/08 07:35:40;;;;;;;21.23;11.48;;;4.70;78.60;;;;;;5011432;28;20129;-50
2022/01/08 07:38:07;;;;;;;20.88;12.05;;;4.70;78.50;;;;;;5016555;28;20064;-53
2022/01/08 07:40:33;;;;;;;19.15;11.30;;;4.80;78.40;;;;;;5023047;28;20041;-51
2022/01/08 07:43:00;;;;;;;15.52;9.48;;;4.80;78.20;;;;;;5025244;28;20512;-51
2022/01/08 07:45:27;;;;;;;22.63;10.88;;;4.80;77.90;;;;;;5009425;28;20089;-51
2022/01/08 07:47:54;;;;;;;17.15;10.25;;;4.80;77.70;;;;;;5014769;28;20041;-52
2022/01/08 07:50:21;;;;;;;22.65;10.13;;;4.80;77.60;;;;;;5022108;28;20048;-53
2022/01/08 07:52:48;;;;;;;19.65;11.27;;;4.80;77.50;;;;;;5030948;28;20103;-50
2022/01/08 07:55:14;;;;;;;20.10;11.73;;;4.80;77.50;;;;;;5024054;28;20100;-54
2022/01/08 07:57:41;;;;;;;20.63;12.30;;;4.80;77.60;;;;;;5001758;28;20053;-54
2022/01/08 08:00:08;;;;;;;19.48;11.07;;;4.80;77.70;;;;;;4989860;28;20057;-53
2022/01/08 08:02:38;;;;;;;20.27;10.52;;;4.80;77.90;;;;;;5003358;28;20513;-54
2022/01/08 08:05:05;;;;;;;22.80;12.10;;;4.80;78.00;;;;;;4993449;28;20061;-53
2022/01/08 08:07:38;;;;;;;18.95;11.30;;;4.70;78.00;;;;;;5006623;28;20498;-54
2022/01/08 08:10:10;;;;;;;23.65;11.65;;;4.80;78.20;;;;;;4996641;28;20038;-50
2022/01/08 08:12:38;;;;;;;;;;;4.80;78.20;;;;;;5007043;28;20042;-52
2022/01/08 08:15:07;;;;;;;18.40;11.55;;;4.80;78.50;;;;;;4996909;28;19925;-54
2022/01/08 08:17:35;;;;;;;21.33;11.35;;;4.90;78.10;;;;;;5010203;28;20049;-54
2022/01/08 08:20:04;;;;;;;22.27;12.35;;;4.80;78.20;;;;;;4993160;28;20050;-50
2022/01/08 08:22:31;;;;;;;22.92;13.15;;;4.90;78.40;;;;;;5001105;28;20038;-49
2022/01/08 08:24:58;;;;;;;24.35;12.60;;;4.90;78.50;;;;;;4998528;28;20104;-50
2022/01/08 08:27:25;;;;;;;21.55;11.93;;;4.90;78.50;;;;;;5007285;28;20046;-51
2022/01/08 08:29:52;;;;;;;24.48;13.02;;;5.00;78.60;;;;;;4991385;28;20041;-52
2022/01/08 08:32:19;;;;;;;24.70;12.00;;;5.00;79.30;;;;;;5006619;28;20054;-50
2022/01/08 08:34:46;;;;;;;23.80;13.30;;;5.10;78.80;;;;;;4992468;28;20494;-53
2022/01/08 08:37:13;;;;;;;23.92;12.68;;;5.10;78.70;;;;;;5006483;28;20064;-51
2022/01/08 08:39:40;;;;;;;22.00;12.85;;;5.20;78.50;;;;;;4997300;28;20093;-53
2022/01/08 08:42:07;;;;;;;20.77;12.40;;;5.20;78.40;;;;;;4997310;28;20092;-54
2022/01/08 08:44:34;;;;;;;24.70;12.85;;;5.20;78.30;;;;;;4999078;28;20107;-49
2022/01/08 08:47:01;;;;;;;22.35;11.57;;;5.30;78.30;;;;;;5006767;28;20041;-51
2022/01/08 08:49:28;;;;;;;22.27;12.38;;;5.30;78.30;;;;;;4996822;28;20037;-54
2022/01/08 08:51:55;;;;;;;22.10;11.98;;;5.30;78.30;;;;;;5006583;28;20069;-50
2022/01/08 08:54:21;;;;;;;23.13;12.25;;;5.40;78.30;;;;;;4998872;28;20081;-54
2022/01/08 08:56:48;;;;;;;20.55;11.93;;;5.40;78.30;;;;;;5007242;28;20119;-54
2022/01/08 08:59:15;;;;;;;21.70;11.35;;;5.50;78.30;;;;;;4997644;28;20049;-54
2022/01/08 09:01:42;;;;;;;24.85;12.15;;;5.50;78.20;;;;;;5007993;28;20034;-53
2022/01/08 09:04:09;;;;;;;22.88;13.23;;;5.60;78.10;;;;;;4995191;28;20063;-51
2022/01/08 09:06:36;;;;;;;24.25;12.43;;;5.60;78.10;;;;;;5005879;28;20041;-54
2022/01/08 09:09:03;;;;;;;26.50;13.48;;;5.60;78.00;;;;;;4998913;28;20088;-51
2022/01/08 09:11:30;;;;;;;25.33;12.65;;;5.60;78.00;;;;;;5013672;28;20497;-50
2022/01/08 09:13:57;;;;;;;21.85;13.27;;;5.70;78.00;;;;;;5002560;28;20430;-50
2022/01/08 09:16:24;;;;;;;25.40;13.38;;;5.70;77.90;;;;;;5000177;28;20171;-51
2022/01/08 09:18:51;;;;;;;25.05;13.38;;;5.80;77.90;;;;;;4995102;28;20049;-51
2022/01/08 09:21:18;;;;;;;22.15;13.25;;;5.80;77.80;;;;;;5006276;28;20042;-51
2022/01/08 09:23:45;;;;;;;25.35;13.63;;;5.80;77.70;;;;;;5003561;28;20842;-51
2022/01/08 09:26:12;;;;;;;23.80;12.77;;;5.90;77.70;;;;;;4993106;28;20596;-53
2022/01/08 09:28:41;;;;;;;26.77;13.00;;;5.90;77.60;;;;;;4993299;28;20433;-50
2022/01/08 09:31:08;;;;;;;29.83;14.95;;;5.90;77.60;;;;;;5010832;28;20038;-53
2022/01/08 09:33:36;;;;;;;25.52;14.30;;;6.00;77.60;;;;;;5008192;28;20567;-52
2022/01/08 09:36:03;;;;;;;21.80;13.13;;;6.00;77.50;;;;;;4990865;28;20046;-52
2022/01/08 09:38:30;;;;;;;30.77;14.70;;;6.00;77.50;;;;;;4994485;28;20574;-51
2022/01/08 09:40:57;;;;;;;20.92;12.93;;;6.00;77.50;;;;;;5020609;28;20064;-51
2022/01/08 09:43:25;;;;;;;22.75;12.77;;;6.00;77.40;;;;;;4999414;28;20050;-50
2022/01/08 09:45:52;;;;;;;21.30;12.07;;;6.10;77.40;;;;;;4995352;28;20037;-50
2022/01/08 09:48:19;;;;;;;21.95;12.80;;;6.10;77.30;;;;;;4992796;28;20112;-50
2022/01/08 09:50:46;;;;;;;25.40;12.45;;;6.10;77.30;;;;;;5008532;28;20554;-50
2022/01/08 09:53:13;;;;;;;25.60;13.48;;;6.20;77.20;;;;;;5005283;28;20050;-51
2022/01/08 09:55:39;;;;;;;19.40;11.73;;;6.20;77.00;;;;;;4991938;28;20774;-51
2022/01/08 09:58:07;;;;;;;22.25;10.95;;;6.30;76.90;;;;;;4995965;28;20699;-53
2022/01/08 10:00:35;;;;;;;18.83;9.85;;;6.30;76.80;;;;;;5003175;28;20512;-50
2022/01/08 10:03:20;;;;;;;17.85;10.90;;;6.30;76.70;;;;;;4996574;28;20179;-51
2022/01/08 10:05:54;;;;;;;18.42;9.27;;;6.40;76.10;;;;;;4998866;28;20108;-52
2022/01/08 10:08:42;;;;;;;16.95;9.95;;;6.40;76.20;;;;;;4993968;28;20109;-51
2022/01/08 10:11:10;;;;;;;16.30;10.30;;;6.40;76.10;;;;;;5020378;28;20033;-50
2022/01/08 10:13:40;;;;;;;15.60;9.15;;;6.40;75.90;;;;;;5001993;28;20038;-50
2022/01/08 10:19:03;;;;;;;14.00;8.55;;;6.50;75.70;;;;;;4994558;28;20057;-52
2022/01/08 10:21:34;;;;;;;17.60;8.77;;;6.50;75.90;;;;;;5015314;28;20424;-53
2022/01/08 10:24:08;;;;;;;13.05;9.18;;;6.50;76.00;;;;;;4998975;28;20042;-51
2022/01/08 10:26:40;;;;;;;18.77;9.38;;;6.50;75.90;;;;;;5001767;28;20049;-50
2022/01/08 10:29:11;;;;;;;14.55;8.30;;;6.60;75.90;;;;;;4992177;28;20038;-51
2022/01/08 10:31:45;;;;;;;15.27;8.30;;;6.60;75.70;;;;;;5007519;28;20037;-52
2022/01/08 10:34:17;;;;;;;13.82;8.32;;;6.70;75.50;;;;;;4996595;28;20043;-52
2022/01/08 10:36:56;;;;;;;14.40;7.57;;;6.70;75.10;;;;;;5000647;28;20558;-55
2022/01/08 10:39:45;;;;;;;13.65;8.02;;;6.80;75.10;;;;;;4994914;28;20054;-50
2022/01/08 10:42:15;;;;;;;12.68;7.82;;;6.80;75.20;;;;;;5005367;28;20045;-51
2022/01/08 10:44:43;;;;;;;14.90;8.10;;;6.80;75.20;;;;;;4997034;28;20107;-50
2022/01/08 10:47:21;;;;;;;14.75;7.90;;;6.90;75.20;;;;;;5002432;28;20042;-51
2022/01/08 10:50:00;;;;;;;12.90;7.57;;;6.90;75.10;;;;;;4998790;28;20057;-53
2022/01/08 10:52:28;;;;;;;17.38;8.27;;;7.00;75.10;;;;;;4999117;28;20045;-50
2022/01/08 10:54:57;;;;;;;12.68;7.38;;;7.10;75.20;;;;;;5006880;28;20064;-54
2022/01/08 10:57:39;;;;;;;14.02;7.60;;;7.10;74.90;;;;;;5006567;28;20133;-51
2022/01/08 11:00:14;;;;;;;11.38;7.22;;;7.20;74.70;;;;;;4996063;28;20046;-53
2022/01/08 11:02:43;;;;;;;9.32;6.20;;;7.30;74.40;;;;;;5010413;28;20057;-54
2022/01/08 11:05:11;;;;;;;10.18;6.57;;;7.40;74.40;;;;;;4994434;28;20041;-54
2022/01/08 11:07:41;;;;;;;9.73;6.85;;;7.40;74.10;;;;;;5010275;28;20752;-55
2022/01/08 11:10:15;;;;;;;12.82;6.18;;;7.40;74.00;;;;;;4997616;28;20050;-52
2022/01/08 11:12:45;;;;;;;11.70;6.32;;;7.50;73.80;;;;;;5003024;28;20041;-50
2022/01/08 11:17:54;;;;;;;8.73;5.53;;;7.60;73.60;;;;;;5023797;28;20048;-53
2022/01/08 11:20:44;;;;;;;9.60;5.30;;;7.60;73.30;;;;;;5016629;28;20069;-53
2022/01/08 11:23:12;;;;;;;9.27;5.03;;;7.70;73.10;;;;;;5007193;28;20662;-52
2022/01/08 11:25:39;;;;;;;9.00;4.95;;;7.70;73.10;;;;;;5009097;28;20105;-52
2022/01/08 11:28:14;;;;;;;11.43;4.68;;;7.70;72.80;;;;;;5008046;28;20042;-54
2022/01/08 11:30:51;;;;;;;7.07;4.88;;;7.80;72.20;;;;;;5014713;23;20038;-75
2022/01/08 11:33:28;;;;;;;9.95;4.38;;;7.80;72.30;;;;;;5013944;28;20061;-75
2022/01/08 11:35:57;;;;;;;5.90;3.65;;;7.80;71.80;;;;;;5011306;28;20046;-75
2022/01/08 11:38:27;;;;;;;6.25;3.60;;;7.80;71.50;;;;;;4993973;28;20049;-75
2022/01/08 11:40:57;;;;;;;7.38;3.55;;;7.90;71.50;;;;;;5008251;28;20533;-75
2022/01/08 11:43:28;;;;;;;9.23;3.53;;;7.80;71.20;;;;;;5009887;28;20046;-75
2022/01/08 11:46:02;;;;;;;7.72;3.90;;;7.80;71.30;;;;;;5008934;28;20060;-75
2022/01/08 11:48:43;;;;;;;5.72;3.42;;;7.80;71.20;;;;;;5005325;28;20489;-75
2022/01/08 11:51:19;;;;;;;7.40;3.77;;;7.90;71.20;;;;;;5010707;28;20040;-75
2022/01/08 11:53:46;;;;;;;6.13;3.65;;;7.90;71.50;;;;;;5000751;28;20307;-75
2022/01/08 11:56:37;;;;;;;6.30;3.70;;;7.90;71.80;;;;;;5018161;28;20436;-75
2022/01/08 11:59:18;;;;;;;4.82;2.80;;;8.00;70.50;;;;;;5000931;28;20053;-75
2022/01/08 12:02:08;;;;;;;4.82;2.70;;;7.90;70.60;;;;;;5014293;28;20037;-75
2022/01/08 12:04:36;;;;;;;6.13;3.83;;;8.00;70.30;;;;;;5009281;28;20042;-75
2022/01/08 12:07:24;;;;;;;4.78;3.33;;;8.00;71.10;;;;;;5008999;28;20066;-75
2022/01/08 12:10:29;;;;;;;6.90;3.28;;;8.10;70.10;;;;;;5004545;28;20034;-75
2022/01/08 12:12:59;;;;;;;5.22;3.10;;;8.10;70.00;;;;;;4979877;28;20058;-75
2022/01/08 12:15:42;;;;;;;4.63;3.20;;;8.10;71.00;;;;;;4987879;28;20506;-76
2022/01/08 12:18:12;;;;;;;5.55;2.80;;;8.10;69.80;;;;;;4979326;28;20060;-75
2022/01/08 12:20:57;;;;;;;4.25;2.85;;;8.20;70.50;;;;;;5001401;28;20054;-76
2022/01/08 12:23:30;;;;;;;5.97;2.75;;;8.20;69.60;;;;;;5002573;28;20077;-75
2022/01/08 12:26:00;;;;;;;4.18;2.50;;;8.20;70.40;;;;;;5006280;28;20057;-75
2022/01/08 12:28:53;;;;;;;4.30;3.00;;;8.20;70.40;;;;;;4993889;28;20046;-75
2022/01/08 12:31:22;;;;;;;5.47;3.03;;;8.20;69.20;;;;;;5006558;28;20048;-75
2022/01/08 12:34:28;;;;;;;3.90;2.80;;;8.30;70.10;;;;;;4994808;28;20172;-75
2022/01/08 12:37:03;;;;;;;4.65;2.53;;;8.30;69.00;;;;;;4975582;28;20506;-75
2022/01/08 12:39:48;;;;;;;5.50;2.85;;;8.30;69.50;;;;;;5010397;28;20498;-75
2022/01/08 12:42:25;;;;;;;4.53;2.70;;;8.30;69.20;;;;;;4983539;28;20153;-75
2022/01/08 12:45:07;;;;;;;3.80;2.72;;;8.30;69.30;;;;;;5000185;28;20511;-75
2022/01/08 12:47:42;;;;;;;5.25;2.80;;;8.20;69.50;;;;;;4991726;28;20050;-75
2022/01/08 12:50:27;;;;;;;3.08;2.38;;;8.20;69.40;;;;;;4998639;28;20058;-75
2022/01/08 12:53:06;;;;;;;3.85;2.42;;;8.20;69.20;;;;;;4978764;28;20979;-75
2022/01/08 12:55:38;;;;;;;4.38;2.53;;;8.20;68.90;;;;;;4984108;28;20055;-75
2022/01/08 12:58:19;;;;;;;2.97;2.33;;;8.20;69.50;;;;;;4977284;28;20046;-75
2022/01/08 13:00:55;;;;;;;2.78;2.25;;;8.20;69.20;;;;;;4998708;28;20046;-75
2022/01/08 13:03:44;;;;;;;2.50;1.98;;;8.20;69.50;;;;;;4986567;28;20049;-75
2022/01/08 13:06:14;;;;;;;4.38;2.00;;;8.20;70.10;;;;;;4999229;28;20049;-75
2022/01/08 13:08:43;;;;;;;2.83;1.63;;;8.10;69.90;;;;;;4976140;28;20537;-75
2022/01/08 13:11:14;;;;;;;2.88;1.80;;;8.20;70.00;;;;;;4984126;28;20137;-75
2022/01/08 13:13:58;;;;;;;2.07;1.40;;;8.20;70.00;;;;;;4977351;28;20498;-75
2022/01/08 13:16:36;;;;;;;3.88;1.50;;;8.30;69.50;;;;;;4998577;28;20100;-75
2022/01/08 13:19:09;;;;;;;3.60;1.33;;;8.20;70.20;;;;;;4977199;28;20604;-75
2022/01/08 13:21:41;;;;;;;2.55;1.40;;;8.20;70.00;;;;;;4994362;28;20050;-75